createdAt,value
2019-05-29T00:01:34.033Z,94204.73
2019-05-29T00:04:08.131Z,94205.31
2019-05-29T00:06:41.515Z,94205.68
2019-05-29T00:09:14.529Z,94207.59
2019-05-29T00:11:48.074Z,94205.29
2019-05-29T00:14:27.093Z,94207.08
2019-05-29T00:16:55.678Z,94201.69
2019-05-29T00:19:28.822Z,94202.94
2019-05-29T00:22:02.077Z,94203.41
2019-05-29T00:24:35.426Z,94203.75
2019-05-29T00:27:12.562Z,94202.20
2019-05-29T00:29:42.875Z,94199.88
2019-05-29T00:32:17.188Z,94201.55
2019-05-29T00:34:50.276Z,94206.48
2019-05-29T00:37:23.424Z,94210.57
2019-05-29T00:39:56.512Z,94210.39
2019-05-29T00:42:29.559Z,94212.75
2019-05-29T00:45:02.461Z,94207.95
2019-05-29T00:47:35.350Z,94214.74
2019-05-29T00:50:09.902Z,94219.80
2019-05-29T00:52:43.180Z,94218.64
2019-05-29T00:55:16.937Z,94217.22
2019-05-29T00:57:50.081Z,94215.72
2019-05-29T01:00:23.404Z,94211.81
2019-05-29T01:02:56.563Z,94213.95
2019-05-29T01:05:29.411Z,94221.80
2019-05-29T01:08:02.378Z,94220.62
2019-05-29T01:10:35.910Z,94218.46
2019-05-29T01:13:09.271Z,94219.92
2019-05-29T01:15:42.318Z,94212.34
2019-05-29T01:18:15.785Z,94211.88
2019-05-29T01:20:49.024Z,94208.34
2019-05-29T01:23:22.500Z,94205.88
2019-05-29T01:25:55.529Z,94207.41
2019-05-29T01:28:28.740Z,94207.80
2019-05-29T01:31:01.758Z,94212.36
2019-05-29T01:33:35.736Z,94211.84
2019-05-29T01:36:09.046Z,94218.41
2019-05-29T01:38:42.327Z,94219.00
2019-05-29T01:41:15.452Z,94220.42
2019-05-29T01:43:48.464Z,94225.00
2019-05-29T01:46:22.202Z,94221.42
2019-05-29T01:48:55.298Z,94220.38
2019-05-29T01:51:28.657Z,94226.28
2019-05-29T01:54:01.728Z,94227.66
2019-05-29T01:56:34.788Z,94230.17
2019-05-29T01:59:08.017Z,94234.93
2019-05-29T02:01:40.978Z,94230.50
2019-05-29T02:04:13.977Z,94234.59
2019-05-29T02:06:47.115Z,94233.66
2019-05-29T02:09:20.297Z,94231.14
2019-05-29T02:11:53.745Z,94237.85
2019-05-29T02:14:28.104Z,94237.41
2019-05-29T02:17:01.064Z,94237.30
2019-05-29T02:19:34.140Z,94242.41
2019-05-29T02:22:07.590Z,94249.81
2019-05-29T02:24:40.985Z,94241.18
2019-05-29T02:27:14.057Z,94254.30
2019-05-29T02:29:47.302Z,94254.09
2019-05-29T02:32:21.389Z,94255.23
2019-05-29T02:34:54.443Z,94249.67
2019-05-29T02:37:28.965Z,94254.42
2019-05-29T02:40:02.442Z,94260.61
2019-05-29T02:42:35.642Z,94262.41
2019-05-29T02:45:10.339Z,94261.91
2019-05-29T02:47:43.348Z,94259.45
2019-05-29T02:50:16.590Z,94260.08
2019-05-29T02:52:49.702Z,94263.70
2019-05-29T02:55:24.363Z,94266.14
2019-05-29T02:57:57.637Z,94276.11
2019-05-29T03:00:55.220Z,94276.64
2019-05-29T03:03:31.591Z,94284.44
2019-05-29T03:06:03.501Z,94288.24
2019-05-29T03:08:36.361Z,94285.69
2019-05-29T03:11:10.659Z,94283.36
2019-05-29T03:13:43.968Z,94282.94
2019-05-29T03:16:17.098Z,94283.72
2019-05-29T03:18:50.250Z,94289.77
2019-05-29T03:21:24.105Z,94291.20
2019-05-29T03:23:57.492Z,94288.11
2019-05-29T03:26:33.419Z,94293.31
2019-05-29T03:29:06.556Z,94303.63
2019-05-29T03:31:47.256Z,94307.64
2019-05-29T03:34:14.752Z,94307.45
2019-05-29T03:36:49.226Z,94309.44
2019-05-29T03:39:22.499Z,94302.91
2019-05-29T03:41:55.625Z,94304.95
2019-05-29T03:44:30.258Z,94299.91
2019-05-29T03:47:03.569Z,94302.47
2019-05-29T03:49:37.690Z,94306.32
2019-05-29T03:52:11.029Z,94308.88
2019-05-29T03:54:44.140Z,94305.74
2019-05-29T03:57:16.985Z,94311.47
2019-05-29T03:59:50.168Z,94310.23
2019-05-29T04:02:23.273Z,94313.45
2019-05-29T04:04:56.354Z,94311.88
2019-05-29T04:07:31.397Z,94315.07
2019-05-29T04:10:04.559Z,94310.61
2019-05-29T04:12:38.296Z,94313.99
2019-05-29T04:15:14.110Z,94311.11
2019-05-29T04:17:48.180Z,94314.53
2019-05-29T04:20:21.432Z,94313.54
2019-05-29T04:22:56.990Z,94313.30
2019-05-29T04:25:39.599Z,94317.59
2019-05-29T04:28:11.006Z,94319.16
2019-05-29T04:30:44.164Z,94312.63
2019-05-29T04:33:17.379Z,94316.75
2019-05-29T04:35:50.523Z,94318.03
2019-05-29T04:38:24.563Z,94324.18
2019-05-29T04:40:57.881Z,94320.25
2019-05-29T04:43:33.372Z,94325.63
2019-05-29T04:46:07.126Z,94330.66
2019-05-29T04:48:40.656Z,94332.54
2019-05-29T04:51:14.301Z,94331.42
2019-05-29T04:53:47.789Z,94336.19
2019-05-29T04:56:21.512Z,94336.20
2019-05-29T04:58:55.248Z,94329.72
2019-05-29T05:01:29.078Z,94330.20
2019-05-29T05:04:02.269Z,94330.84
2019-05-29T05:06:35.391Z,94334.09
2019-05-29T05:09:09.675Z,94333.37
2019-05-29T05:11:43.029Z,94331.22
2019-05-29T05:14:16.029Z,94328.09
2019-05-29T05:16:49.679Z,94323.77
2019-05-29T05:19:22.982Z,94326.05
2019-05-29T05:21:56.432Z,94329.43
2019-05-29T05:24:49.958Z,94322.91
2019-05-29T05:27:23.134Z,94327.45
2019-05-29T05:29:56.492Z,94323.98
2019-05-29T05:32:30.583Z,94324.48
2019-05-29T05:35:04.262Z,94317.69
2019-05-29T05:37:38.554Z,94321.50
2019-05-29T05:40:12.162Z,94320.80
2019-05-29T05:42:45.202Z,94320.80
2019-05-29T05:45:18.917Z,94324.09
2019-05-29T05:47:57.420Z,94328.58
2019-05-29T05:50:26.942Z,94326.25
2019-05-29T05:53:00.290Z,94336.38
2019-05-29T05:55:33.479Z,94327.05
2019-05-29T05:58:06.892Z,94332.77
2019-05-29T06:00:41.913Z,94331.80
2019-05-29T06:03:16.332Z,94334.32
2019-05-29T06:05:49.604Z,94333.09
2019-05-29T06:08:22.925Z,94333.95
2019-05-29T06:10:56.152Z,94341.17
2019-05-29T06:13:29.228Z,94341.41
2019-05-29T06:16:02.364Z,94343.23
2019-05-29T06:18:36.565Z,94342.88
2019-05-29T06:21:10.259Z,94346.22
2019-05-29T06:23:43.793Z,94345.30
2019-05-29T06:26:17.416Z,94339.83
2019-05-29T06:28:50.715Z,94340.00
2019-05-29T06:31:27.132Z,94343.97
2019-05-29T06:33:59.259Z,94348.88
2019-05-29T06:36:33.464Z,94348.62
2019-05-29T06:39:08.018Z,94351.48
2019-05-29T06:41:42.052Z,94347.77
2019-05-29T06:44:15.349Z,94351.03
2019-05-29T06:46:48.467Z,94352.87
2019-05-29T06:49:21.622Z,94350.69
2019-05-29T06:51:55.193Z,94348.76
2019-05-29T06:54:28.409Z,94345.85
2019-05-29T06:57:01.637Z,94349.81
2019-05-29T06:59:36.087Z,94347.92
2019-05-29T07:02:09.923Z,94345.24
2019-05-29T07:04:43.186Z,94346.78
2019-05-29T07:07:16.678Z,94344.89
2019-05-29T07:09:50.128Z,94346.62
2019-05-29T07:12:24.356Z,94351.08
2019-05-29T07:14:57.442Z,94349.51
2019-05-29T07:17:30.515Z,94344.54
2019-05-29T07:20:04.453Z,94350.73
2019-05-29T07:22:38.876Z,94340.28
2019-05-29T07:25:12.228Z,94341.67
2019-05-29T07:27:45.315Z,94341.94
2019-05-29T07:30:19.185Z,94335.59
2019-05-29T07:32:58.089Z,94337.64
2019-05-29T07:35:30.021Z,94336.83
2019-05-29T07:38:03.418Z,94332.72
2019-05-29T07:40:38.447Z,94340.39
2019-05-29T07:43:12.294Z,94337.59
2019-05-29T07:45:46.145Z,94334.95
2019-05-29T07:48:19.315Z,94331.19
2019-05-29T07:51:06.225Z,94333.80
2019-05-29T07:53:27.640Z,94329.13
2019-05-29T07:56:01.016Z,94335.23
2019-05-29T07:58:34.350Z,94329.41
2019-05-29T08:01:13.380Z,94335.33
2019-05-29T08:03:43.482Z,94329.19
2019-05-29T08:06:16.623Z,94324.59
2019-05-29T08:08:49.740Z,94323.78
2019-05-29T08:11:23.485Z,94324.58
2019-05-29T08:13:56.781Z,94327.83
2019-05-29T08:16:29.998Z,94327.94
2019-05-29T08:19:03.250Z,94332.30
2019-05-29T08:21:36.799Z,94328.70
2019-05-29T08:24:10.126Z,94327.25
2019-05-29T08:26:44.813Z,94329.17
2019-05-29T08:29:18.236Z,94331.87
2019-05-29T08:31:51.466Z,94323.48
2019-05-29T08:34:24.692Z,94322.92
2019-05-29T08:37:06.571Z,94322.73
2019-05-29T08:39:36.620Z,94325.83
2019-05-29T08:42:22.468Z,94320.41
2019-05-29T08:44:43.396Z,94318.98
2019-05-29T08:47:16.469Z,94316.13
2019-05-29T08:49:53.117Z,94314.23
2019-05-29T08:52:24.655Z,94321.91
2019-05-29T08:54:58.273Z,94320.45
2019-05-29T08:57:31.510Z,94314.70
2019-05-29T09:00:04.856Z,94315.77
2019-05-29T09:02:37.893Z,94317.27
2019-05-29T09:05:11.053Z,94320.65
2019-05-29T09:07:46.367Z,94314.06
2019-05-29T09:10:19.697Z,94310.18
2019-05-29T09:13:03.880Z,94314.74
2019-05-29T09:15:27.829Z,94307.69
2019-05-29T09:18:01.419Z,94308.20
2019-05-29T09:20:57.864Z,94308.98
2019-05-29T09:23:09.414Z,94310.84
2019-05-29T09:25:42.566Z,94309.69
2019-05-29T09:28:18.404Z,94305.89
2019-05-29T09:30:51.007Z,94297.95
2019-05-29T09:33:24.609Z,94301.45
2019-05-29T09:35:57.777Z,94302.37
2019-05-29T09:38:30.945Z,94302.25
2019-05-29T09:41:04.169Z,94305.41
2019-05-29T09:43:37.267Z,94302.05
2019-05-29T09:46:10.506Z,94306.20
2019-05-29T09:48:49.908Z,94305.60
2019-05-29T09:51:21.666Z,94300.13
2019-05-29T09:53:54.334Z,94302.38
2019-05-29T09:56:28.317Z,94300.87
2019-05-29T09:59:02.461Z,94295.43
2019-05-29T10:01:36.706Z,94296.11
2019-05-29T10:04:10.301Z,94294.48
2019-05-29T10:06:43.463Z,94292.84
2019-05-29T10:09:16.911Z,94292.06
2019-05-29T10:11:50.537Z,94284.58
2019-05-29T10:14:23.651Z,94277.89
2019-05-29T10:16:59.262Z,94281.16
2019-05-29T10:19:31.986Z,94267.42
2019-05-29T10:22:05.686Z,94269.94
2019-05-29T10:24:39.071Z,94272.62
2019-05-29T10:27:12.305Z,94266.55
2019-05-29T10:29:49.598Z,94267.23
2019-05-29T10:32:20.373Z,94263.86
2019-05-29T10:34:53.726Z,94261.09
2019-05-29T10:37:29.158Z,94264.30
2019-05-29T10:40:03.509Z,94266.55
2019-05-29T10:42:36.918Z,94258.20
2019-05-29T10:45:11.227Z,94272.81
2019-05-29T10:47:45.419Z,94270.33
2019-05-29T10:50:19.247Z,94262.13
2019-05-29T10:52:52.524Z,94262.94
2019-05-29T10:55:26.435Z,94269.86
2019-05-29T10:58:00.151Z,94265.61
2019-05-29T11:00:33.586Z,94259.33
2019-05-29T11:03:06.801Z,94263.73
2019-05-29T11:05:40.175Z,94263.29
2019-05-29T11:08:13.103Z,94266.00
2019-05-29T11:10:46.355Z,94255.41
2019-05-29T11:13:19.492Z,94266.11
2019-05-29T11:15:52.961Z,94258.76
2019-05-29T11:18:26.268Z,94260.73
2019-05-29T11:20:59.493Z,94256.33
2019-05-29T11:23:32.710Z,94253.21
2019-05-29T11:26:06.049Z,94257.77
2019-05-29T11:31:39.443Z,94253.91
2019-05-29T11:34:13.827Z,94253.09
2019-05-29T11:39:46.466Z,94250.65
2019-05-29T11:42:27.431Z,94254.03
2019-05-29T11:44:53.570Z,94255.39
2019-05-29T11:47:26.289Z,94247.70
2019-05-29T11:50:07.481Z,94241.19
2019-05-29T11:52:42.352Z,94239.33
2019-05-29T11:55:08.334Z,94238.90
2019-05-29T11:57:40.998Z,94241.09
2019-05-29T12:00:19.564Z,94240.48
2019-05-29T12:02:48.462Z,94250.84
2019-05-29T12:05:21.741Z,94246.83
2019-05-29T12:07:55.367Z,94237.02
2019-05-29T12:10:27.884Z,94236.95
2019-05-29T12:13:01.614Z,94245.19
2019-05-29T12:15:34.064Z,94240.84
2019-05-29T12:18:23.066Z,94238.81
2019-05-29T12:20:41.131Z,94234.09
2019-05-29T12:23:25.999Z,94234.46
2019-05-29T12:25:47.717Z,94240.86
2019-05-29T12:28:20.053Z,94238.84
2019-05-29T12:30:53.410Z,94241.16
2019-05-29T12:33:26.510Z,94238.58
2019-05-29T12:35:59.244Z,94238.95
2019-05-29T12:38:31.779Z,94227.54
2019-05-29T12:41:04.635Z,94234.09
2019-05-29T12:43:40.258Z,94233.84
2019-05-29T12:46:12.826Z,94232.80
2019-05-29T12:48:45.312Z,94232.73
2019-05-29T12:51:17.804Z,94228.52
2019-05-29T12:53:50.619Z,94225.05
2019-05-29T12:56:23.444Z,94227.59
2019-05-29T12:58:56.437Z,94223.69
2019-05-29T13:01:30.313Z,94228.64
2019-05-29T13:04:04.599Z,94224.59
2019-05-29T13:06:37.367Z,94224.66
2019-05-29T13:09:10.888Z,94222.29
2019-05-29T13:11:43.604Z,94221.27
2019-05-29T13:14:16.274Z,94220.27
2019-05-29T13:16:48.856Z,94217.45
2019-05-29T13:19:21.758Z,94218.98
2019-05-29T13:21:55.054Z,94207.98
2019-05-29T13:24:27.716Z,94208.97
2019-05-29T13:27:01.833Z,94208.16
2019-05-29T13:29:34.651Z,94207.85
2019-05-29T13:32:07.735Z,94219.12
2019-05-29T13:34:40.716Z,94221.14
2019-05-29T13:37:13.348Z,94221.75
2019-05-29T13:39:45.874Z,94225.61
2019-05-29T13:42:18.352Z,94224.41
2019-05-29T13:44:50.925Z,94219.62
2019-05-29T13:47:23.153Z,94216.45
2019-05-29T13:49:56.914Z,94216.76
2019-05-29T13:52:29.745Z,94215.67
2019-05-29T13:55:02.022Z,94218.16
2019-05-29T13:57:34.697Z,94215.99
2019-05-29T14:00:31.678Z,94213.16
2019-05-29T14:02:42.722Z,94215.31
2019-05-29T14:05:16.614Z,94214.31
2019-05-29T14:07:49.401Z,94216.08
2019-05-29T14:10:22.056Z,94212.05
2019-05-29T14:12:54.725Z,94219.73
2019-05-29T14:15:29.159Z,94214.64
2019-05-29T14:18:02.863Z,94213.02
2019-05-29T14:20:35.335Z,94206.88
2019-05-29T14:23:07.941Z,94213.61
2019-05-29T14:25:40.553Z,94219.52
2019-05-29T14:28:25.821Z,94217.52
2019-05-29T14:31:00.248Z,94224.05
2019-05-29T14:33:33.458Z,94235.49
2019-05-29T14:36:07.674Z,94252.20
2019-05-29T14:38:40.940Z,94258.24
2019-05-29T14:41:14.230Z,94253.32
2019-05-29T14:43:47.374Z,94251.53
2019-05-29T14:46:20.839Z,94261.98
2019-05-29T14:48:54.344Z,94261.36
2019-05-29T14:51:27.510Z,94252.16
2019-05-29T14:54:02.771Z,94257.62
2019-05-29T14:56:36.587Z,94256.20
2019-05-29T14:59:11.120Z,94255.27
2019-05-29T15:01:45.083Z,94257.46
2019-05-29T15:04:18.651Z,94262.03
2019-05-29T15:06:52.141Z,94258.41
2019-05-29T15:09:25.331Z,94264.62
2019-05-29T15:11:59.005Z,94268.25
2019-05-29T15:14:32.968Z,94263.68
2019-05-29T15:17:09.048Z,94268.52
2019-05-29T15:19:42.622Z,94266.25
2019-05-29T15:22:16.172Z,94271.08
2019-05-29T15:25:04.163Z,94278.64
2019-05-29T15:27:25.651Z,94273.95
2019-05-29T15:29:59.079Z,94277.31
2019-05-29T15:32:32.351Z,94277.47
2019-05-29T15:35:06.536Z,94287.95
2019-05-29T15:37:40.530Z,94291.45
2019-05-29T15:40:14.900Z,94295.75
2019-05-29T15:42:49.566Z,94300.52
2019-05-29T15:45:25.351Z,94300.05
2019-05-29T15:47:58.662Z,94302.19
2019-05-29T15:50:32.600Z,94304.55
2019-05-29T15:53:07.080Z,94309.65
2019-05-29T15:55:40.669Z,94310.23
2019-05-29T15:58:13.713Z,94315.03
2019-05-29T16:00:47.146Z,94315.02
2019-05-29T16:03:20.917Z,94322.10
2019-05-29T16:05:54.705Z,94321.46
2019-05-29T16:08:28.145Z,94318.13
2019-05-29T16:11:01.404Z,94323.98
2019-05-29T16:13:34.739Z,94324.70
2019-05-29T16:16:09.315Z,94325.23
2019-05-29T16:18:42.522Z,94319.75
2019-05-29T16:21:16.608Z,94325.82
2019-05-29T16:23:49.811Z,94323.20
2019-05-29T16:26:24.027Z,94324.66
2019-05-29T16:28:57.650Z,94323.25
2019-05-29T16:31:35.067Z,94328.35
2019-05-29T16:34:08.817Z,94333.73
2019-05-29T16:36:42.379Z,94332.81
2019-05-29T16:39:16.156Z,94332.48
2019-05-29T16:41:49.112Z,94335.22
2019-05-29T16:44:28.789Z,94332.64
2019-05-29T16:46:58.398Z,94339.66
2019-05-29T16:49:32.282Z,94345.06
2019-05-29T16:52:08.857Z,94349.80
2019-05-29T16:54:42.563Z,94351.70
2019-05-29T16:57:17.091Z,94356.79
2019-05-29T16:59:50.984Z,94357.69
2019-05-29T17:02:24.209Z,94361.97
2019-05-29T17:04:58.609Z,94360.08
2019-05-29T17:07:36.682Z,94357.30
2019-05-29T17:10:12.541Z,94362.95
2019-05-29T17:12:51.620Z,94358.81
2019-05-29T17:15:25.572Z,94363.78
2019-05-29T17:17:59.415Z,94365.84
2019-05-29T17:20:48.746Z,94366.92
2019-05-29T17:23:25.647Z,94366.93
2019-05-29T17:26:10.295Z,94373.66
2019-05-29T17:28:35.213Z,94378.09
2019-05-29T17:31:12.135Z,94381.20
2019-05-29T17:33:46.165Z,94384.00
2019-05-29T17:36:19.601Z,94386.70
2019-05-29T17:38:53.061Z,94391.19
2019-05-29T17:41:27.008Z,94397.66
2019-05-29T17:44:00.567Z,94400.48
2019-05-29T17:46:34.066Z,94407.88
2019-05-29T17:49:07.566Z,94409.68
2019-05-29T17:51:41.170Z,94416.34
2019-05-29T17:54:14.061Z,94421.73
2019-05-29T17:56:47.569Z,94422.33
2019-05-29T17:59:22.115Z,94428.55
2019-05-29T18:01:55.665Z,94429.05
2019-05-29T18:04:32.448Z,94431.26
2019-05-29T18:07:06.068Z,94430.42
2019-05-29T18:09:39.288Z,94435.35
2019-05-29T18:12:12.992Z,94439.09
2019-05-29T18:14:46.993Z,94442.88
2019-05-29T18:17:21.400Z,94443.88
2019-05-29T18:19:54.771Z,94441.27
2019-05-29T18:22:28.246Z,94453.91
2019-05-29T18:25:02.238Z,94452.02
2019-05-29T18:27:35.362Z,94454.08
2019-05-29T18:30:10.141Z,94455.23
2019-05-29T18:32:43.606Z,94451.81
2019-05-29T18:35:18.886Z,94462.56
2019-05-29T18:37:53.499Z,94467.56
2019-05-29T18:40:28.378Z,94471.59
2019-05-29T18:43:02.017Z,94478.69
2019-05-29T18:45:35.590Z,94481.67
2019-05-29T18:48:09.478Z,94482.67
2019-05-29T18:50:44.329Z,94490.55
2019-05-29T18:53:18.795Z,94490.99
2019-05-29T18:55:51.816Z,94505.00
2019-05-29T18:58:26.003Z,94508.54
2019-05-29T19:00:59.279Z,94515.58
2019-05-29T19:03:32.929Z,94522.59
2019-05-29T19:06:06.577Z,94533.20
2019-05-29T19:08:43.139Z,94535.16
2019-05-29T19:11:18.540Z,94533.97
2019-05-29T19:13:53.125Z,94541.11
2019-05-29T19:16:30.039Z,94544.09
2019-05-29T19:19:03.845Z,94545.98
2019-05-29T19:21:37.447Z,94553.58
2019-05-29T19:24:11.739Z,94550.35
2019-05-29T19:26:47.946Z,94554.66
2019-05-29T19:29:22.989Z,94571.59
2019-05-29T19:32:00.396Z,94568.19
2019-05-29T19:34:35.543Z,94574.59
2019-05-29T19:37:11.082Z,94577.98
2019-05-29T19:39:44.578Z,94575.36
2019-05-29T19:42:18.366Z,94584.33
2019-05-29T19:44:51.796Z,94583.45
2019-05-29T19:47:26.474Z,94580.11
2019-05-29T19:50:00.433Z,94586.48
2019-05-29T19:52:35.319Z,94598.21
2019-05-29T19:55:10.057Z,94591.64
2019-05-29T19:57:55.608Z,94595.04
2019-05-29T20:00:19.063Z,94601.70
2019-05-29T20:02:52.525Z,94611.05
2019-05-29T20:05:28.551Z,94613.83
2019-05-29T20:08:04.336Z,94615.14
2019-05-29T20:10:37.864Z,94614.58
2019-05-29T20:13:12.971Z,94621.20
2019-05-29T20:15:46.273Z,94622.77
2019-05-29T20:18:19.876Z,94621.45
2019-05-29T20:20:53.278Z,94621.05
2019-05-29T20:23:26.857Z,94622.04
2019-05-29T20:26:00.368Z,94619.08
2019-05-29T20:28:34.246Z,94628.56
2019-05-29T20:31:11.185Z,94630.53
2019-05-29T20:33:42.817Z,94635.06
2019-05-29T20:36:16.404Z,94640.33
2019-05-29T20:38:50.103Z,94640.92
2019-05-29T20:41:23.659Z,94644.33
2019-05-29T20:43:57.006Z,94647.32
2019-05-29T20:46:30.479Z,94640.83
2019-05-29T20:49:03.579Z,94640.89
2019-05-29T20:51:38.293Z,94642.09
2019-05-29T20:54:11.562Z,94643.28
2019-05-29T20:56:45.092Z,94644.91
2019-05-29T20:59:18.711Z,94647.36
2019-05-29T21:01:52.343Z,94650.30
2019-05-29T21:04:25.789Z,94652.78
2019-05-29T21:06:59.052Z,94654.86
2019-05-29T21:09:32.942Z,94644.39
2019-05-29T21:12:06.320Z,94644.70
2019-05-29T21:14:39.797Z,94647.94
2019-05-29T21:17:13.351Z,94652.58
2019-05-29T21:19:47.029Z,94661.48
2019-05-29T21:22:20.545Z,94665.31
2019-05-29T21:25:01.660Z,94665.64
2019-05-29T21:27:30.209Z,94658.41
2019-05-29T21:30:03.474Z,94663.23
2019-05-29T21:32:40.026Z,94661.91
2019-05-29T21:35:13.371Z,94666.34
2019-05-29T21:37:46.994Z,94672.52
2019-05-29T21:40:20.646Z,94677.70
2019-05-29T21:42:54.220Z,94673.08
2019-05-29T21:45:27.387Z,94671.39
2019-05-29T21:48:00.998Z,94668.63
2019-05-29T21:50:37.061Z,94663.31
2019-05-29T21:53:10.845Z,94665.96
2019-05-29T21:55:47.849Z,94669.03
2019-05-29T21:58:21.246Z,94669.58
2019-05-29T22:00:55.489Z,94671.78
2019-05-29T22:03:29.077Z,94674.48
2019-05-29T22:06:02.357Z,94675.73
2019-05-29T22:08:36.266Z,94676.25
2019-05-29T22:11:09.348Z,94680.78
2019-05-29T22:13:44.131Z,94685.23
2019-05-29T22:16:17.546Z,94684.28
2019-05-29T22:18:50.906Z,94674.22
2019-05-29T22:21:24.358Z,94671.69
2019-05-29T22:23:57.588Z,94671.05
2019-05-29T22:26:31.096Z,94666.28
2019-05-29T22:29:17.403Z,94668.05
2019-05-29T22:31:39.309Z,94661.31
2019-05-29T22:34:12.827Z,94667.84
2019-05-29T22:36:46.509Z,94672.64
2019-05-29T22:39:20.782Z,94678.39
2019-05-29T22:41:55.778Z,94680.66
2019-05-29T22:44:28.867Z,94683.41
2019-05-29T22:47:02.544Z,94691.37
2019-05-29T22:49:35.904Z,94695.23
2019-05-29T22:52:09.035Z,94697.70
2019-05-29T22:54:42.446Z,94700.92
2019-05-29T22:57:15.565Z,94706.33
2019-05-29T22:59:48.596Z,94706.19
2019-05-29T23:02:21.684Z,94706.77
2019-05-29T23:04:56.123Z,94704.95
2019-05-29T23:07:29.263Z,94706.66
2019-05-29T23:10:02.663Z,94708.82
2019-05-29T23:12:35.863Z,94707.81
2019-05-29T23:15:09.750Z,94713.22
2019-05-29T23:17:42.762Z,94709.50
2019-05-29T23:20:15.932Z,94713.81
2019-05-29T23:22:49.144Z,94708.58
2019-05-29T23:25:22.073Z,94710.98
2019-05-29T23:27:55.175Z,94707.91
2019-05-29T23:30:30.420Z,94712.16
2019-05-29T23:33:03.419Z,94712.57
2019-05-29T23:35:36.586Z,94707.63
2019-05-29T23:38:09.994Z,94706.26
2019-05-29T23:40:43.155Z,94709.86
2019-05-29T23:43:18.173Z,94710.63
2019-05-29T23:45:51.174Z,94708.23
2019-05-29T23:48:24.830Z,94711.99
2019-05-29T23:50:57.845Z,94712.94
2019-05-29T23:53:30.998Z,94705.79
2019-05-29T23:56:04.089Z,94709.33
2019-05-29T23:58:37.260Z,94708.76
